Time;durP1;ratioP1;P1;durP2;ratioP2;P2;SDS_P1;SDS_P2;PMS_P1;PMS_P2;Temp;Humidity;BMP_temperature;BMP_pressure;BME280_temperature;BME280_humidity;BME280_pressure;Samples;Min_cycle;Max_cycle;Signal;HPM_P1;HPM_P2
2023/08/18 00:01:21;;;;;;;46.05;22.92;;;;;;;18.10;100.00;101417.78;5066315;28;20534;-81
2023/08/18 00:03:46;;;;;;;42.30;20.45;;;;;;;18.03;100.00;101419.44;5054742;28;20033;-82
2023/08/18 00:06:12;;;;;;;41.33;19.98;;;;;;;17.98;100.00;101419.88;5068880;28;20085;-81
2023/08/18 00:08:38;;;;;;;39.30;19.02;;;;;;;17.96;100.00;101434.94;5090399;28;20020;-81
2023/08/18 00:11:03;;;;;;;35.75;18.85;;;;;;;17.97;100.00;101429.25;5056120;28;20036;-81
2023/08/18 00:13:29;;;;;;;32.95;18.40;;;;;;;18.01;100.00;101440.88;5068149;28;20182;-81
2023/08/18 00:15:54;;;;;;;32.47;18.08;;;;;;;17.95;100.00;101431.28;5073235;28;20036;-82
2023/08/18 00:18:20;;;;;;;32.45;17.50;;;;;;;17.95;100.00;101425.75;5071566;28;20020;-81
2023/08/18 00:20:45;;;;;;;27.00;15.98;;;;;;;18.00;100.00;101422.50;5086275;28;20474;-80
2023/08/18 00:23:12;;;;;;;23.85;14.55;;;;;;;18.02;100.00;101422.34;5055490;28;20494;-80
2023/08/18 00:25:38;;;;;;;26.08;15.98;;;;;;;17.93;100.00;101427.81;5084628;28;20434;-81
2023/08/18 00:28:05;;;;;;;23.95;14.88;;;;;;;17.99;100.00;101427.19;5072123;28;20031;-81
2023/08/18 00:30:32;;;;;;;22.80;14.85;;;;;;;17.92;100.00;101434.41;5053731;28;20021;-81
2023/08/18 00:32:57;;;;;;;23.77;14.75;;;;;;;17.89;100.00;101433.81;5074726;28;20032;-81
2023/08/18 00:35:23;;;;;;;22.23;15.00;;;;;;;17.91;100.00;101429.88;5057588;28;20510;-81
2023/08/18 00:37:48;;;;;;;25.05;15.77;;;;;;;17.89;100.00;101425.50;5086759;28;20054;-81
2023/08/18 00:40:17;;;;;;;27.60;15.02;;;;;;;17.88;100.00;101430.19;5068824;28;20413;-80
2023/08/18 00:42:43;;;;;;;26.13;15.10;;;;;;;17.84;100.00;101431.50;5081826;28;20292;-80
2023/08/18 00:45:10;;;;;;;24.05;14.68;;;;;;;17.76;100.00;101429.50;5087639;28;20034;-80
2023/08/18 00:47:37;;;;;;;23.27;14.90;;;;;;;17.81;100.00;101423.50;5089340;28;20036;-80
2023/08/18 00:50:04;;;;;;;28.50;15.05;;;;;;;17.85;100.00;101419.38;5087035;28;20043;-80
2023/08/18 00:52:30;;;;;;;26.88;15.05;;;;;;;17.75;100.00;101419.44;5088607;28;20058;-80
2023/08/18 00:54:57;;;;;;;27.30;15.00;;;;;;;17.69;100.00;101417.25;5085710;28;20043;-81
2023/08/18 00:57:23;;;;;;;28.15;15.40;;;;;;;17.68;100.00;101412.78;5087058;28;20486;-81
2023/08/18 00:59:49;;;;;;;25.70;16.00;;;;;;;17.55;100.00;101406.72;5071439;28;20039;-81
2023/08/18 01:02:17;;;;;;;28.33;15.90;;;;;;;17.61;100.00;101412.53;5085669;28;20024;-81
2023/08/18 01:04:43;;;;;;;26.00;15.65;;;;;;;17.51;100.00;101405.28;5080757;28;20033;-81
2023/08/18 01:07:09;;;;;;;25.45;15.02;;;;;;;17.51;100.00;101410.81;5087109;28;20032;-81
2023/08/18 01:09:34;;;;;;;24.60;15.32;;;;;;;17.57;100.00;101407.44;5055728;28;20028;-81
2023/08/18 01:12:24;;;;;;;29.77;16.13;;;;;;;17.53;100.00;101401.34;5072337;28;20028;-81
2023/08/18 01:15:05;;;;;;;24.48;15.15;;;;;;;17.47;100.00;101401.94;5083722;28;20157;-82
2023/08/18 01:17:37;;;;;;;26.35;15.95;;;;;;;17.51;100.00;101405.28;5086365;28;20016;-82
2023/08/18 01:20:04;;;;;;;27.38;14.98;;;;;;;17.54;100.00;101405.84;5085943;28;20033;-81
2023/08/18 01:22:31;;;;;;;26.38;15.77;;;;;;;17.56;100.00;101405.69;5081448;28;20039;-82
2023/08/18 01:25:00;;;;;;;25.85;14.82;;;;;;;17.61;100.00;101398.66;5087630;28;20048;-82
2023/08/18 01:27:30;;;;;;;26.38;14.30;;;;;;;17.64;100.00;101397.47;5073757;28;20052;-82
2023/08/18 01:29:57;;;;;;;22.13;14.63;;;;;;;17.62;100.00;101399.53;5082807;28;20486;-82
2023/08/18 01:32:35;;;;;;;30.80;15.82;;;;;;;17.55;100.00;101396.50;5067658;28;20077;-81
2023/08/18 01:35:01;;;;;;;23.63;13.38;;;;;;;17.53;100.00;101397.69;5082645;28;20032;-81
2023/08/18 01:37:29;;;;;;;21.48;14.32;;;;;;;17.48;100.00;101395.41;5067763;28;20028;-82
2023/08/18 01:39:58;;;;;;;23.42;14.32;;;;;;;17.54;100.00;101397.53;5064060;28;20376;-81
2023/08/18 01:42:26;;;;;;;27.80;15.30;;;;;;;17.43;100.00;101395.84;5084007;28;20020;-81
2023/08/18 01:45:03;;;;;;;31.35;15.05;;;;;;;17.39;100.00;101386.09;5072141;28;20028;-81
2023/08/18 01:47:29;;;;;;;26.88;14.60;;;;;;;17.41;100.00;101384.06;5069068;28;20024;-81
2023/08/18 01:49:55;;;;;;;32.10;15.65;;;;;;;17.43;100.00;101382.00;5085779;28;20077;-80
2023/08/18 01:52:22;;;;;;;35.60;17.38;;;;;;;17.37;100.00;101373.44;5052488;28;20036;-80
2023/08/18 01:54:51;;;;;;;34.17;16.42;;;;;;;17.45;100.00;101371.66;5081550;28;20452;-80
2023/08/18 01:57:17;;;;;;;36.38;17.80;;;;;;;17.41;100.00;101372.09;5069943;28;20029;-81
2023/08/18 01:59:44;;;;;;;35.65;17.83;;;;;;;17.39;100.00;101368.63;5087056;28;20024;-80
2023/08/18 02:02:09;;;;;;;32.67;17.67;;;;;;;17.48;100.00;101355.75;5084815;28;20016;-81
2023/08/18 02:04:34;;;;;;;39.13;18.38;;;;;;;17.43;100.00;101370.03;5052416;28;20510;-81
2023/08/18 02:07:00;;;;;;;45.03;20.80;;;;;;;17.34;100.00;101366.31;5062809;28;20032;-81
2023/08/18 02:09:25;;;;;;;42.17;20.38;;;;;;;17.39;100.00;101363.94;5052048;28;20085;-81
2023/08/18 02:11:51;;;;;;;41.90;21.85;;;;;;;17.40;100.00;101364.84;5069347;28;20126;-81
2023/08/18 02:14:18;;;;;;;43.65;21.92;;;;;;;17.22;100.00;101356.47;5070363;28;20028;-80
2023/08/18 02:16:43;;;;;;;44.67;21.48;;;;;;;17.28;100.00;101355.84;5066798;28;20028;-81
2023/08/18 02:19:10;;;;;;;46.97;21.63;;;;;;;17.29;100.00;101351.19;5077339;28;20032;-93
2023/08/18 02:21:36;;;;;;;51.63;23.20;;;;;;;17.21;100.00;101361.13;5102420;28;20071;-93
2023/08/18 02:24:02;;;;;;;44.90;21.70;;;;;;;17.19;100.00;101365.94;5083936;28;20086;-92
2023/08/18 02:26:27;;;;;;;47.92;22.77;;;;;;;17.25;100.00;101370.88;5089134;28;20008;-93
2023/08/18 02:28:54;;;;;;;41.03;21.77;;;;;;;17.18;100.00;101368.84;5063819;28;20032;-93
2023/08/18 02:31:19;;;;;;;45.42;22.23;;;;;;;17.26;100.00;101374.50;5105501;28;20031;-93
2023/08/18 02:33:46;;;;;;;50.67;22.88;;;;;;;17.22;100.00;101373.09;5074864;28;20113;-93
2023/08/18 02:36:12;;;;;;;50.03;24.60;;;;;;;17.24;100.00;101373.78;5078823;28;20052;-94
2023/08/18 02:38:40;;;;;;;49.45;22.50;;;;;;;17.31;100.00;101369.38;5102066;28;20044;-93
2023/08/18 02:41:07;;;;;;;47.28;23.05;;;;;;;17.31;100.00;101361.06;5080806;28;20039;-94
2023/08/18 02:43:33;;;;;;;50.97;23.52;;;;;;;17.21;100.00;101368.56;5060884;28;20028;-93
2023/08/18 02:46:00;;;;;;;45.83;24.40;;;;;;;17.13;100.00;101360.16;5079718;28;20607;-94
2023/08/18 02:48:29;;;;;;;46.30;21.83;;;;;;;17.26;100.00;101357.91;5092317;28;20371;-94
2023/08/18 02:51:05;;;;;;;51.13;23.02;;;;;;;17.22;100.00;101365.63;5094473;28;20466;-93
2023/08/18 02:53:32;;;;;;;46.40;23.23;;;;;;;17.15;100.00;101364.53;5092531;28;20036;-94
2023/08/18 02:56:00;;;;;;;54.47;24.35;;;;;;;17.11;100.00;101363.06;5100978;28;20016;-93
2023/08/18 02:58:28;;;;;;;51.85;23.95;;;;;;;17.16;100.00;101359.84;5091906;28;20028;-92
2023/08/18 03:00:56;;;;;;;63.13;24.60;;;;;;;17.20;100.00;101356.63;5099869;28;20024;-93
2023/08/18 03:03:23;;;;;;;53.17;24.75;;;;;;;17.11;100.00;101353.91;5102652;28;20044;-92
2023/08/18 03:05:50;;;;;;;46.97;23.10;;;;;;;17.10;100.00;101353.00;5109867;28;20020;-92
2023/08/18 03:08:15;;;;;;;52.67;24.98;;;;;;;17.04;100.00;101353.63;5108018;28;20119;-92
2023/08/18 03:10:41;;;;;;;54.38;25.13;;;;;;;17.04;100.00;101351.72;5077212;28;20022;-93
2023/08/18 03:13:08;;;;;;;57.50;26.67;;;;;;;17.04;100.00;101357.25;5096386;28;20054;-92
2023/08/18 03:15:40;;;;;;;56.70;24.80;;;;;;;17.19;100.00;101345.72;5080488;28;20063;-92
2023/08/18 03:18:07;;;;;;;54.47;26.02;;;;;;;17.07;100.00;101348.66;5092674;28;20048;-93
2023/08/18 03:20:38;;;;;;;57.22;25.75;;;;;;;16.89;100.00;101353.25;5069159;28;20021;-93
2023/08/18 03:23:03;;;;;;;57.83;26.95;;;;;;;16.96;100.00;101361.81;5091305;28;20061;-95
2023/08/18 03:25:29;;;;;;;64.18;26.00;;;;;;;16.98;100.00;101355.09;5082480;28;20032;-94
2023/08/18 03:27:54;;;;;;;58.28;26.08;;;;;;;16.99;100.00;101351.31;5061800;28;20123;-94
2023/08/18 03:30:19;;;;;;;65.10;27.88;;;;;;;17.05;100.00;101358.13;5062922;28;20029;-94
2023/08/18 03:32:47;;;;;;;66.60;27.67;;;;;;;17.09;100.00;101362.34;5070345;28;20052;-94
2023/08/18 03:35:13;;;;;;;67.05;27.10;;;;;;;17.01;100.00;101351.16;5082346;28;20024;-94
2023/08/18 03:37:39;;;;;;;65.85;27.52;;;;;;;17.03;100.00;101349.97;5065791;28;20024;-94
2023/08/18 03:40:05;;;;;;;63.60;25.92;;;;;;;17.09;100.00;101356.81;5065394;28;20032;-92
2023/08/18 03:42:31;;;;;;;63.28;27.25;;;;;;;17.02;100.00;101353.78;5074078;28;20032;-94
2023/08/18 03:44:56;;;;;;;64.72;26.98;;;;;;;17.02;100.00;101355.66;5077826;28;20394;-93
2023/08/18 03:47:21;;;;;;;68.72;28.75;;;;;;;17.00;100.00;101347.50;5060601;28;20025;-94
2023/08/18 03:49:47;;;;;;;71.22;29.27;;;;;;;16.99;100.00;101348.56;5059754;28;20526;-94
2023/08/18 03:52:12;;;;;;;62.75;27.23;;;;;;;16.92;100.00;101355.69;5063623;28;20105;-94
2023/08/18 03:54:38;;;;;;;66.72;30.30;;;;;;;16.95;100.00;101341.56;5065049;28;20024;-95
2023/08/18 03:57:03;;;;;;;73.10;30.50;;;;;;;16.93;100.00;101351.91;5064647;28;20028;-95
2023/08/18 03:59:29;;;;;;;68.80;28.60;;;;;;;16.91;100.00;101342.91;5060841;28;20028;-94
2023/08/18 04:01:54;;;;;;;68.97;29.60;;;;;;;16.94;100.00;101334.31;5062625;28;20127;-95
2023/08/18 04:04:19;;;;;;;77.20;30.50;;;;;;;16.91;100.00;101340.13;5062571;28;20039;-95
2023/08/18 04:06:46;;;;;;;71.90;30.25;;;;;;;16.95;100.00;101346.25;5064785;28;20038;-94
2023/08/18 04:09:16;;;;;;;77.93;30.55;;;;;;;16.94;100.00;101345.38;5107445;28;20079;-91
2023/08/18 04:11:43;;;;;;;70.22;28.70;;;;;;;17.00;100.00;101339.22;5083716;28;20033;-90
2023/08/18 04:14:10;;;;;;;79.40;31.35;;;;;;;16.93;100.00;101340.84;5079390;28;20055;-93
2023/08/18 04:16:36;;;;;;;75.13;31.23;;;;;;;16.92;100.00;101349.31;5081510;28;20028;-93
2023/08/18 04:19:03;;;;;;;75.10;31.48;;;;;;;16.94;100.00;101353.69;5079018;28;20050;-93
2023/08/18 04:21:29;;;;;;;81.70;30.17;;;;;;;16.99;100.00;101350.47;5107482;28;20020;-92
2023/08/18 04:23:54;;;;;;;80.82;30.58;;;;;;;16.95;100.00;101360.94;5069927;28;20109;-89
2023/08/18 04:26:20;;;;;;;71.75;29.55;;;;;;;17.03;100.00;101355.50;5096233;28;20126;-90
2023/08/18 04:28:48;;;;;;;73.72;30.55;;;;;;;17.06;100.00;101352.44;5089740;28;20129;-89
2023/08/18 04:31:14;;;;;;;70.25;29.33;;;;;;;17.06;100.00;101357.13;5085713;28;20055;-86
2023/08/18 04:33:39;;;;;;;74.47;30.00;;;;;;;17.09;100.00;101356.81;5094761;28;20031;-87
2023/08/18 04:36:05;;;;;;;70.57;30.40;;;;;;;17.06;100.00;101355.22;5060445;28;20449;-89
2023/08/18 04:38:31;;;;;;;78.78;29.52;;;;;;;17.00;100.00;101364.09;5089782;28;20486;-87
2023/08/18 04:40:57;;;;;;;68.97;28.45;;;;;;;16.97;100.00;101361.66;5069778;28;20032;-84
2023/08/18 04:43:24;;;;;;;77.68;30.90;;;;;;;17.00;100.00;101347.50;5086949;28;20107;-84
2023/08/18 04:45:51;;;;;;;75.65;28.75;;;;;;;17.10;100.00;101358.53;5055446;28;20040;-83
2023/08/18 04:48:17;;;;;;;71.65;29.48;;;;;;;17.04;100.00;101356.41;5091213;28;20028;-85
2023/08/18 04:50:43;;;;;;;71.55;28.05;;;;;;;17.00;100.00;101355.81;5063057;28;20032;-83
2023/08/18 04:53:10;;;;;;;71.90;29.30;;;;;;;17.12;100.00;101355.63;5083090;28;20024;-85
2023/08/18 04:55:36;;;;;;;78.45;31.38;;;;;;;17.11;100.00;101352.00;5047394;28;20459;-81
2023/08/18 04:58:02;;;;;;;76.43;30.20;;;;;;;17.03;100.00;101347.22;5057825;28;20527;-82
2023/08/18 05:00:28;;;;;;;73.20;28.65;;;;;;;17.05;100.00;101347.06;5087455;28;20096;-82
2023/08/18 05:02:55;;;;;;;73.82;28.67;;;;;;;17.03;100.00;101349.97;5085395;28;20035;-82
2023/08/18 05:05:20;;;;;;;70.47;29.38;;;;;;;17.03;100.00;101347.22;5066541;28;20043;-82
2023/08/18 05:07:45;;;;;;;69.43;29.40;;;;;;;17.01;100.00;101337.34;5082268;28;20032;-82
2023/08/18 05:10:11;;;;;;;76.90;31.75;;;;;;;16.96;100.00;101351.63;5055720;28;20492;-82
2023/08/18 05:12:37;;;;;;;78.20;31.85;;;;;;;16.95;100.00;101352.63;5071925;28;20024;-81
2023/08/18 05:15:04;;;;;;;75.35;30.42;;;;;;;17.06;100.00;101352.44;5084433;28;20036;-81
2023/08/18 05:17:30;;;;;;;78.68;30.17;;;;;;;17.01;100.00;101351.16;5066920;28;20089;-83
2023/08/18 05:19:55;;;;;;;73.13;29.50;;;;;;;16.96;100.00;101339.69;5086319;28;20223;-82
2023/08/18 05:22:22;;;;;;;76.10;30.58;;;;;;;16.95;100.00;101343.47;5070059;28;20035;-82
2023/08/18 05:24:48;;;;;;;71.18;29.50;;;;;;;16.94;100.00;101342.59;5069483;28;20044;-82
2023/08/18 05:27:19;;;;;;;70.75;29.98;;;;;;;16.95;100.00;101337.94;5085668;28;20608;-82
2023/08/18 05:29:44;;;;;;;82.53;30.92;;;;;;;16.87;100.00;101347.88;5089068;28;20047;-82
2023/08/18 05:32:11;;;;;;;76.53;29.98;;;;;;;16.93;100.00;101351.91;5069045;28;20040;-82
2023/08/18 05:34:38;;;;;;;73.55;28.98;;;;;;;16.98;100.00;101344.03;5072358;28;20086;-82
2023/08/18 05:37:05;;;;;;;75.50;29.77;;;;;;;16.94;100.00;101345.38;5054184;28;20044;-82
2023/08/18 05:39:32;;;;;;;80.28;30.38;;;;;;;16.95;100.00;101349.88;5088057;28;20114;-82
2023/08/18 05:41:58;;;;;;;79.13;32.50;;;;;;;16.99;100.00;101356.84;5053674;28;20052;-82
2023/08/18 05:44:23;;;;;;;76.43;29.98;;;;;;;16.97;100.00;101361.66;5056077;28;20155;-82
2023/08/18 05:46:48;;;;;;;74.07;29.60;;;;;;;17.00;100.00;101347.50;5064527;28;20031;-80
2023/08/18 05:49:17;;;;;;;82.13;32.20;;;;;;;17.02;100.00;101353.78;5088690;28;20032;-80
2023/08/18 05:51:44;;;;;;;85.18;33.42;;;;;;;17.13;100.00;101338.00;5072832;28;20382;-81
2023/08/18 05:54:09;;;;;;;75.22;30.67;;;;;;;17.09;100.00;101341.06;5072505;28;20033;-81
2023/08/18 05:56:35;;;;;;;83.57;33.30;;;;;;;17.00;100.00;101341.13;5052167;28;20040;-81
2023/08/18 05:59:04;;;;;;;86.35;32.28;;;;;;;17.01;100.00;101345.63;5054011;28;20116;-82
2023/08/18 06:01:30;;;;;;;80.15;31.50;;;;;;;17.03;100.00;101338.03;5086609;28;20493;-81
2023/08/18 06:03:55;;;;;;;91.03;31.27;;;;;;;17.09;100.00;101335.53;5045462;28;20024;-81
2023/08/18 06:06:20;;;;;;;84.97;32.25;;;;;;;17.16;100.00;101330.28;5070831;28;20555;-81
2023/08/18 06:08:46;;;;;;;95.68;33.15;;;;;;;17.13;100.00;101338.88;5054698;28;20032;-82
2023/08/18 06:11:12;;;;;;;85.80;31.52;;;;;;;17.26;100.00;101336.63;5079369;28;20557;-82
2023/08/18 06:13:37;;;;;;;84.57;31.13;;;;;;;17.26;100.00;101335.75;5084126;28;20106;-82
2023/08/18 06:16:08;;;;;;;72.15;28.98;;;;;;;17.24;100.00;101332.28;5086828;28;20036;-82
2023/08/18 06:18:33;;;;;;;85.65;31.30;;;;;;;17.26;100.00;101333.84;5068863;28;20064;-81
2023/08/18 06:20:59;;;;;;;83.57;30.90;;;;;;;17.29;100.00;101329.91;5082463;28;20474;-82
2023/08/18 06:23:25;;;;;;;81.63;30.30;;;;;;;17.31;100.00;101336.16;5085448;28;20064;-81
2023/08/18 06:25:50;;;;;;;86.38;31.55;;;;;;;17.34;100.00;101338.63;5087896;28;20154;-83
2023/08/18 06:28:16;;;;;;;80.90;30.15;;;;;;;17.41;100.00;101334.22;5084825;28;20476;-83
2023/08/18 06:30:44;;;;;;;77.15;28.27;;;;;;;17.63;100.00;101332.91;5052771;28;20038;-82
2023/08/18 06:33:10;;;;;;;86.97;30.45;;;;;;;17.48;100.00;101330.81;5070204;28;20134;-81
2023/08/18 06:35:36;;;;;;;82.80;29.23;;;;;;;17.50;100.00;101335.19;5087546;28;20028;-83
2023/08/18 06:38:03;;;;;;;81.50;28.42;;;;;;;17.54;100.00;101335.75;5065117;28;20119;-85
2023/08/18 06:40:28;;;;;;;88.22;29.25;;;;;;;17.54;100.00;101332.97;5052323;28;20032;-83
2023/08/18 06:42:53;;;;;;;90.15;28.48;;;;;;;17.59;100.00;101328.72;5052638;28;20494;-82
2023/08/18 06:45:21;;;;;;;77.13;28.02;;;;;;;17.62;100.00;101331.16;5070708;28;20040;-83
2023/08/18 06:47:48;;;;;;;85.32;29.38;;;;;;;17.61;100.00;101320.25;5057163;28;20094;-84
2023/08/18 06:50:13;;;;;;;81.82;29.33;;;;;;;17.65;100.00;101321.69;5061652;28;20036;-84
2023/08/18 06:52:38;;;;;;;88.05;29.85;;;;;;;17.74;100.00;101320.75;5070121;28;20039;-84
2023/08/18 06:55:06;;;;;;;83.95;30.10;;;;;;;17.71;100.00;101326.59;5089196;28;20046;-82
2023/08/18 06:57:32;;;;;;;83.45;27.70;;;;;;;17.72;100.00;101330.22;5073884;28;20034;-84
2023/08/18 06:59:58;;;;;;;93.25;29.90;;;;;;;17.78;100.00;101330.47;5072447;28;20070;-84
2023/08/18 07:02:23;;;;;;;81.68;28.27;;;;;;;17.74;100.00;101323.53;5089413;28;20040;-83
2023/08/18 07:04:49;;;;;;;83.47;28.70;;;;;;;17.74;100.00;101329.06;5073117;28;20028;-84
2023/08/18 07:07:15;;;;;;;82.75;28.42;;;;;;;17.79;100.00;101332.22;5054307;28;20031;-84
2023/08/18 07:09:41;;;;;;;78.55;28.15;;;;;;;17.81;100.00;101335.72;5088858;28;20516;-86
2023/08/18 07:12:09;;;;;;;76.78;28.10;;;;;;;17.74;100.00;101325.41;5092047;28;20032;-84
2023/08/18 07:14:34;;;;;;;80.50;29.13;;;;;;;17.69;100.00;101328.63;5074175;28;20082;-85
2023/08/18 07:16:59;;;;;;;78.82;27.70;;;;;;;17.63;100.00;101327.38;5077009;28;20040;-84
2023/08/18 07:19:26;;;;;;;85.38;29.40;;;;;;;17.71;100.00;101334.03;5091342;28;20118;-85
2023/08/18 07:21:53;;;;;;;76.88;26.67;;;;;;;17.56;100.00;101325.38;5078146;28;20028;-85
2023/08/18 07:24:18;;;;;;;79.72;28.88;;;;;;;17.64;100.00;101322.69;5062106;28;20045;-86
2023/08/18 07:26:43;;;;;;;81.55;28.63;;;;;;;17.76;100.00;101323.38;5091149;28;20039;-81
2023/08/18 07:29:11;;;;;;;80.45;28.00;;;;;;;17.73;100.00;101323.69;5091537;28;20466;-83
2023/08/18 07:31:37;;;;;;;83.50;29.40;;;;;;;17.85;100.00;101324.31;5076121;28;20505;-84
2023/08/18 07:34:03;;;;;;;85.63;29.92;;;;;;;17.79;100.00;101331.34;5074941;28;20052;-81
2023/08/18 07:36:29;;;;;;;76.53;29.15;;;;;;;17.63;100.00;101332.91;5075071;28;20099;-81
2023/08/18 07:38:54;;;;;;;83.93;30.23;;;;;;;17.78;100.00;101336.00;5087299;28;20159;-81
2023/08/18 07:41:20;;;;;;;102.15;33.00;;;;;;;17.83;100.00;101339.19;5074132;28;20119;-81
2023/08/18 07:43:45;;;;;;;80.93;30.20;;;;;;;17.84;100.00;101337.31;5054219;28;20032;-80
2023/08/18 07:46:11;;;;;;;88.20;31.98;;;;;;;17.84;100.00;101331.75;5071150;28;20032;-80
2023/08/18 07:48:38;;;;;;;94.65;31.15;;;;;;;17.85;100.00;101336.25;5090054;28;20436;-79
2023/08/18 07:51:04;;;;;;;82.28;30.52;;;;;;;17.93;100.00;101325.28;5052006;28;20503;-80
2023/08/18 07:53:30;;;;;;;90.68;31.95;;;;;;;17.95;100.00;101334.31;5071188;28;20044;-79
2023/08/18 07:55:58;;;;;;;75.95;29.45;;;;;;;18.14;100.00;101324.09;5058207;28;20099;-80
2023/08/18 07:58:23;;;;;;;86.00;32.10;;;;;;;18.08;100.00;101317.28;5071328;28;20036;-81
2023/08/18 08:00:49;;;;;;;89.40;33.25;;;;;;;18.04;100.00;101324.19;5089604;28;20101;-80
2023/08/18 08:03:17;;;;;;;88.97;31.15;;;;;;;17.99;100.00;101335.75;5051747;28;20039;-80
2023/08/18 08:05:42;;;;;;;81.65;30.88;;;;;;;17.93;100.00;101343.81;5072111;28;20032;-80
2023/08/18 08:08:07;;;;;;;83.82;31.20;;;;;;;18.06;100.00;101337.88;5090529;28;20095;-80
2023/08/18 08:10:33;;;;;;;89.35;29.52;;;;;;;18.05;100.00;101348.09;5070524;28;20024;-92
2023/08/18 08:12:58;;;;;;;79.47;30.23;;;;;;;18.06;100.00;101341.53;5089581;28;20486;-94
2023/08/18 08:15:24;;;;;;;75.57;30.38;;;;;;;18.05;100.00;101348.09;5092983;28;20048;-93
2023/08/18 08:17:51;;;;;;;84.70;31.20;;;;;;;18.10;100.00;101348.50;5063461;28;20062;-93
2023/08/18 08:20:16;;;;;;;96.00;33.75;;;;;;;18.13;100.00;101347.28;5082171;28;20032;-93
2023/08/18 08:22:47;;;;;;;90.15;32.38;;;;;;;18.16;100.00;101347.84;5079409;28;20027;-93
2023/08/18 08:25:14;;;;;;;87.65;31.48;;;;;;;18.31;100.00;101352.84;5079220;28;20098;-94
2023/08/18 08:27:41;;;;;;;90.88;32.47;;;;;;;18.21;100.00;101343.75;5062806;28;20024;-92
2023/08/18 08:30:11;;;;;;;87.45;31.73;;;;;;;18.20;100.00;101345.66;5088303;28;20069;-93
2023/08/18 08:32:39;;;;;;;86.60;31.42;;;;;;;18.13;100.00;101347.28;5097587;28;20026;-91
2023/08/18 08:35:05;;;;;;;91.18;31.63;;;;;;;18.27;100.00;101348.66;5077272;28;20063;-89
2023/08/18 08:37:30;;;;;;;90.93;34.28;;;;;;;18.16;100.00;101344.22;5058486;28;20054;-91
2023/08/18 08:39:55;;;;;;;90.93;35.47;;;;;;;18.31;100.00;101350.91;5066024;28;20051;-91
2023/08/18 08:42:22;;;;;;;93.75;33.80;;;;;;;18.30;100.00;101345.53;5051698;28;20059;-92
2023/08/18 08:44:48;;;;;;;97.88;36.10;;;;;;;18.31;100.00;101352.84;5086370;28;20040;-89
2023/08/18 08:47:14;;;;;;;103.15;37.65;;;;;;;18.34;100.00;101356.16;5061238;28;20043;-94
2023/08/18 08:49:43;;;;;;;105.10;37.78;;;;;;;18.52;100.00;101358.03;5062515;28;20028;-91
2023/08/18 08:52:16;;;;;;;103.18;37.13;;;;;;;18.57;100.00;101352.00;5076372;28;20474;-91
2023/08/18 08:54:58;;;;;;;97.70;36.50;;;;;;;18.62;100.00;101360.72;5082450;28;20092;-92
2023/08/18 08:57:24;;;;;;;90.63;34.88;;;;;;;18.64;100.00;101356.72;5095185;28;20302;-89
2023/08/18 08:59:50;;;;;;;99.22;35.83;;;;;;;18.81;100.00;101359.63;5095090;28;20023;-89
2023/08/18 09:02:17;;;;;;;113.60;37.75;;;;;;;18.59;100.00;101355.47;5087139;28;20032;-92
2023/08/18 09:04:42;;;;;;;112.20;37.83;;;;;;;18.60;100.00;101362.78;5079786;28;20039;-93
2023/08/18 09:07:14;;;;;;;111.20;38.88;;;;;;;18.63;100.00;101352.22;5061493;28;20024;-92
2023/08/18 09:09:41;;;;;;;110.53;38.90;;;;;;;18.92;100.00;101357.50;5076710;28;20047;-92
2023/08/18 09:12:07;;;;;;;114.43;39.45;;;;;;;19.04;100.00;101362.75;5095164;28;20100;-92
2023/08/18 09:14:41;;;;;;;112.10;39.75;;;;;;;18.93;100.00;101361.13;5075618;28;20039;-90
2023/08/18 09:17:07;;;;;;;116.55;39.72;;;;;;;18.99;100.00;101371.56;5054458;28;20043;-92
2023/08/18 09:19:33;;;;;;;109.85;40.15;;;;;;;19.00;100.00;101364.13;5094461;28;20028;-89
2023/08/18 09:22:06;;;;;;;107.10;39.60;;;;;;;18.92;100.00;101362.16;5093419;28;20497;-92
2023/08/18 09:24:32;;;;;;;113.40;39.35;;;;;;;18.96;100.00;101365.50;5074744;28;20064;-91
2023/08/18 09:27:14;;;;;;;112.78;40.63;;;;;;;19.01;100.00;101361.16;5059397;28;20514;-92
2023/08/18 09:29:39;;;;;;;110.93;40.47;;;;;;;19.16;100.00;101358.66;5094507;28;20039;-92
2023/08/18 09:32:07;;;;;;;110.20;39.35;;;;;;;19.20;100.00;101360.06;5060006;28;20406;-93
2023/08/18 09:34:42;;;;;;;116.95;40.63;;;;;;;19.32;100.00;101363.41;5095747;28;20054;-91
2023/08/18 09:37:07;;;;;;;114.15;41.70;;;;;;;19.27;100.00;101354.72;5095178;28;20028;-91
2023/08/18 09:39:33;;;;;;;119.60;43.17;;;;;;;19.26;100.00;101356.59;5066150;28;20494;-90
2023/08/18 09:41:59;;;;;;;117.22;42.17;;;;;;;19.42;100.00;101350.25;5076589;28;20514;-96
2023/08/18 09:44:25;;;;;;;123.78;42.22;;;;;;;19.43;100.00;101346.47;5094087;28;20107;-92
2023/08/18 09:46:51;;;;;;;124.68;41.33;;;;;;;19.51;100.00;101350.28;5061123;28;20066;-90
2023/08/18 09:49:19;;;;;;;123.53;41.38;;;;;;;19.57;100.00;101352.41;5082791;28;20036;-89
2023/08/18 09:51:46;;;;;;;129.00;41.28;;;;;;;19.63;100.00;101341.50;5075216;28;20120;-90
2023/08/18 09:54:13;;;;;;;125.90;40.55;;;;;;;19.46;100.00;101340.56;5086625;28;20078;-89
2023/08/18 09:56:41;;;;;;;128.05;41.58;;;;;;;19.63;100.00;101335.06;5055177;28;20035;-90
2023/08/18 09:59:31;;;;;;;121.50;42.88;;;;;;;19.69;100.00;101337.16;5092740;28;20027;-89
2023/08/18 10:01:57;;;;;;;131.27;42.50;;;;;;;19.65;100.00;101330.22;5079033;28;20486;-87
2023/08/18 10:04:25;;;;;;;128.80;43.63;;;;;;;19.61;100.00;101332.47;5076527;28;20028;-89
2023/08/18 10:06:54;;;;;;;126.93;43.83;;;;;;;19.74;100.00;101336.66;5094066;28;20020;-89
2023/08/18 10:09:22;;;;;;;135.10;46.00;;;;;;;19.71;100.00;101328.66;5086268;28;20019;-87
2023/08/18 10:11:52;;;;;;;116.82;43.28;;;;;;;19.92;100.00;101326.31;5086729;28;20102;-89
2023/08/18 10:14:21;;;;;;;121.72;44.97;;;;;;;19.86;100.00;101338.09;5051934;28;20036;-88
2023/08/18 10:16:48;;;;;;;130.25;44.75;;;;;;;19.84;100.00;101337.41;5086310;28;20151;-86
2023/08/18 10:19:14;;;;;;;134.50;44.85;;;;;;;20.00;100.00;101337.44;5083813;28;20409;-90
2023/08/18 10:21:39;;;;;;;135.75;46.10;;;;;;;20.17;100.00;101337.47;5086383;28;20024;-89
2023/08/18 10:24:06;;;;;;;158.73;52.10;;;;;;;19.81;100.00;101333.06;5057894;28;20054;-88
2023/08/18 10:26:34;;;;;;;152.43;50.58;;;;;;;20.08;100.00;101339.34;5082147;28;20054;-87
2023/08/18 10:29:18;;;;;;;146.50;52.20;;;;;;;19.82;100.00;101333.91;5073723;28;20115;-88
2023/08/18 10:31:47;;;;;;;152.73;51.50;;;;;;;20.14;100.00;101324.75;5065789;28;20051;-89
2023/08/18 10:34:21;;;;;;;152.02;54.72;;;;;;;20.26;100.00;101325.28;5088576;28;20125;-88
2023/08/18 10:36:46;;;;;;;152.68;56.53;;;;;;;20.44;100.00;101318.66;5079434;28;20038;-89
2023/08/18 10:39:26;;;;;;;153.02;52.47;;;;;;;20.64;100.00;101308.06;5067569;28;20028;-89
2023/08/18 10:42:24;;;;;;;158.68;54.97;;;;;;;20.68;100.00;101315.88;5095852;28;20024;-89
2023/08/18 10:44:59;;;;;;;159.43;56.95;;;;;;;20.57;100.00;101310.66;5036259;28;20063;-90
2023/08/18 10:47:29;;;;;;;154.35;56.72;;;;;;;20.68;100.00;101304.75;5093705;28;20059;-91
2023/08/18 10:49:54;;;;;;;152.90;55.03;;;;;;;20.87;100.00;101297.94;5089617;28;20023;-89
2023/08/18 10:52:21;;;;;;;158.73;60.17;;;;;;;20.84;100.00;101294.63;5075698;28;20020;-89
2023/08/18 10:54:47;;;;;;;159.55;60.67;;;;;;;20.73;100.00;101287.53;5071411;28;20024;-91
2023/08/18 10:57:12;;;;;;;167.45;61.85;;;;;;;20.65;100.00;101299.53;5054595;28;20359;-90
2023/08/18 10:59:38;;;;;;;159.15;60.80;;;;;;;20.73;100.00;101291.19;5092287;28;20081;-91